createdAt,value
2023-05-05T00:02:19.109Z,14.30
2023-05-05T00:05:21.099Z,14.30
2023-05-05T00:08:23.047Z,14.20
2023-05-05T00:11:25.927Z,14.20
2023-05-05T00:14:27.578Z,14.10
2023-05-05T00:17:29.227Z,14.00
2023-05-05T00:20:31.442Z,14.00
2023-05-05T00:23:33.072Z,14.00
2023-05-05T00:26:34.665Z,14.00
2023-05-05T00:29:36.264Z,14.00
2023-05-05T00:32:37.897Z,14.00
2023-05-05T00:35:39.585Z,14.00
2023-05-05T00:38:41.189Z,14.10
2023-05-05T00:41:42.802Z,14.10
2023-05-05T00:44:44.891Z,14.00
2023-05-05T00:47:52.328Z,14.00
2023-05-05T00:50:53.990Z,13.90
2023-05-05T00:53:56.016Z,13.90
2023-05-05T00:56:57.686Z,13.80
2023-05-05T00:59:59.762Z,13.70
2023-05-05T01:03:01.519Z,13.70
2023-05-05T01:06:41.158Z,13.60
2023-05-05T01:10:10.963Z,13.60
2023-05-05T01:13:42.619Z,13.60
2023-05-05T01:16:59.823Z,13.60
2023-05-05T01:20:29.337Z,13.60
2023-05-05T01:23:58.962Z,13.60
2023-05-05T01:27:48.170Z,13.60
2023-05-05T01:31:14.231Z,13.60
2023-05-05T01:34:19.155Z,13.60
2023-05-05T01:37:53.487Z,13.60
2023-05-05T01:41:17.179Z,13.50
2023-05-05T01:44:20.248Z,13.60
2023-05-05T01:47:23.518Z,13.70
2023-05-05T01:50:28.683Z,13.60
2023-05-05T01:53:31.866Z,13.60
2023-05-05T01:56:34.512Z,13.40
2023-05-05T01:59:37.857Z,13.20
2023-05-05T02:02:40.449Z,13.10
2023-05-05T02:05:44.371Z,12.90
2023-05-05T02:08:47.499Z,12.80
2023-05-05T02:11:49.771Z,12.70
2023-05-05T02:14:52.119Z,12.70
2023-05-05T02:17:54.149Z,12.70
2023-05-05T02:20:55.925Z,12.70
2023-05-05T02:23:58.274Z,12.80
2023-05-05T02:27:03.491Z,12.80
2023-05-05T02:30:09.307Z,12.90
2023-05-05T02:33:13.778Z,12.90
2023-05-05T02:36:20.211Z,13.00
2023-05-05T02:39:32.712Z,13.00
2023-05-05T02:42:38.395Z,13.00
2023-05-05T02:45:40.131Z,13.00
2023-05-05T02:48:42.037Z,13.00
2023-05-05T02:51:43.586Z,13.00
2023-05-05T02:54:45.275Z,12.90
2023-05-05T02:58:06.639Z,12.80
2023-05-05T03:01:16.875Z,13.00
2023-05-05T03:04:38.044Z,13.00
2023-05-05T03:07:44.835Z,13.00
2023-05-05T03:11:07.925Z,13.00
2023-05-05T03:14:12.152Z,13.00
2023-05-05T03:17:17.197Z,13.00
2023-05-05T03:20:20.177Z,13.00
2023-05-05T03:23:22.735Z,13.00
2023-05-05T03:26:24.701Z,13.00
2023-05-05T03:29:26.694Z,12.90
2023-05-05T03:32:28.759Z,12.80
2023-05-05T03:35:30.585Z,12.70
2023-05-05T03:38:32.222Z,12.70
2023-05-05T03:41:33.948Z,12.60
2023-05-05T03:44:35.864Z,12.50
2023-05-05T03:47:37.517Z,12.50
2023-05-05T03:50:39.185Z,12.50
2023-05-05T03:53:40.906Z,12.50
2023-05-05T03:56:42.784Z,12.40
2023-05-05T03:59:44.395Z,12.40
2023-05-05T04:02:46.142Z,12.30
2023-05-05T04:05:48.193Z,12.40
2023-05-05T04:08:49.738Z,12.40
2023-05-05T04:11:51.411Z,12.40
2023-05-05T04:14:53.004Z,12.50
2023-05-05T04:17:54.665Z,12.50
2023-05-05T04:20:56.259Z,12.50
2023-05-05T04:23:58.372Z,12.60
2023-05-05T04:27:00.174Z,12.70
2023-05-05T04:30:01.726Z,12.80
2023-05-05T04:33:03.532Z,13.00
2023-05-05T04:36:05.314Z,13.10
2023-05-05T04:39:07.327Z,13.30
2023-05-05T04:42:08.970Z,13.40
2023-05-05T04:45:11.026Z,13.40
2023-05-05T04:48:12.591Z,13.60
2023-05-05T04:51:14.203Z,13.70
2023-05-05T04:54:15.834Z,13.90
2023-05-05T04:57:17.471Z,14.10
2023-05-05T05:00:19.137Z,14.40
2023-05-05T05:03:21.035Z,14.60
2023-05-05T05:06:22.779Z,14.80
2023-05-05T05:09:24.732Z,15.00
2023-05-05T05:12:26.311Z,15.10
2023-05-05T05:15:27.999Z,15.10
2023-05-05T05:18:29.672Z,15.20
2023-05-05T05:21:31.671Z,15.30
2023-05-05T05:24:34.677Z,15.40
2023-05-05T05:27:36.460Z,15.50
2023-05-05T05:30:38.058Z,15.60
2023-05-05T05:33:41.921Z,15.60
2023-05-05T05:36:43.498Z,15.60
2023-05-05T05:39:51.966Z,15.70
2023-05-05T05:42:53.546Z,16.00
2023-05-05T05:45:55.249Z,16.20
2023-05-05T05:48:57.299Z,16.50
2023-05-05T05:51:58.901Z,16.80
2023-05-05T05:55:00.524Z,16.90
2023-05-05T05:58:02.152Z,17.00
2023-05-05T06:01:04.897Z,17.10
2023-05-05T06:04:06.542Z,17.10
2023-05-05T06:07:08.174Z,17.20
2023-05-05T06:10:25.859Z,17.20
2023-05-05T06:13:29.285Z,17.30
2023-05-05T06:16:30.966Z,17.30
2023-05-05T06:19:33.025Z,17.20
2023-05-05T06:22:34.692Z,17.20
2023-05-05T06:25:36.643Z,17.30
2023-05-05T06:28:38.322Z,17.40
2023-05-05T06:31:40.339Z,17.60
2023-05-05T06:34:44.499Z,17.70
2023-05-05T06:37:46.061Z,17.80
2023-05-05T06:40:49.527Z,17.80
2023-05-05T06:43:51.215Z,17.80
2023-05-05T06:46:54.067Z,17.90
2023-05-05T06:49:55.662Z,17.90
2023-05-05T06:52:57.283Z,17.90
2023-05-05T06:55:58.894Z,17.90
2023-05-05T06:59:00.553Z,18.10
2023-05-05T07:02:02.196Z,18.30
2023-05-05T07:05:04.262Z,18.40
2023-05-05T07:08:06.825Z,18.60
2023-05-05T07:11:08.393Z,18.80
2023-05-05T07:14:09.974Z,18.90
2023-05-05T07:17:11.804Z,19.00
2023-05-05T07:20:13.503Z,19.10
2023-05-05T07:23:15.227Z,19.20
2023-05-05T07:26:16.869Z,19.30
2023-05-05T07:29:18.514Z,19.50
2023-05-05T07:32:20.244Z,19.70
2023-05-05T07:35:21.887Z,20.00
2023-05-05T07:38:25.182Z,20.30
2023-05-05T07:41:26.782Z,20.30
2023-05-05T07:44:28.412Z,20.50
2023-05-05T07:47:30.271Z,20.50
2023-05-05T07:50:32.124Z,20.60
2023-05-05T07:53:33.686Z,20.60
2023-05-05T07:56:35.381Z,20.80
2023-05-05T07:59:38.472Z,21.00
2023-05-05T08:02:40.346Z,21.20
2023-05-05T08:05:42.465Z,21.30
2023-05-05T08:08:44.041Z,21.30
2023-05-05T08:11:45.702Z,21.40
2023-05-05T08:14:47.341Z,21.50
2023-05-05T08:17:51.479Z,21.60
2023-05-05T08:20:54.526Z,21.80
2023-05-05T08:23:56.111Z,21.70
2023-05-05T08:26:57.713Z,21.80
2023-05-05T08:29:59.465Z,22.00
2023-05-05T08:33:01.199Z,22.20
2023-05-05T08:36:02.853Z,22.50
2023-05-05T08:39:04.555Z,22.50
2023-05-05T08:42:06.617Z,22.60
2023-05-05T08:45:10.368Z,22.60
2023-05-05T08:48:13.320Z,22.70
2023-05-05T08:51:19.650Z,22.80
2023-05-05T08:54:27.106Z,22.90
2023-05-05T08:57:36.452Z,22.80
2023-05-05T09:00:40.893Z,22.80
2023-05-05T09:03:43.671Z,22.80
2023-05-05T09:06:45.645Z,22.70
2023-05-05T09:09:48.032Z,22.60
2023-05-05T09:12:51.288Z,22.60
2023-05-05T09:15:53.112Z,22.60
2023-05-05T09:19:02.508Z,22.90
2023-05-05T09:22:04.086Z,23.10
2023-05-05T09:25:08.524Z,23.40
2023-05-05T09:28:15.581Z,23.50
2023-05-05T09:31:17.208Z,23.50
2023-05-05T09:34:18.895Z,23.70
2023-05-05T09:37:32.620Z,23.80
2023-05-05T09:40:53.783Z,24.00
2023-05-05T09:43:55.433Z,24.10
2023-05-05T09:46:58.193Z,24.30
2023-05-05T09:49:59.902Z,24.50
2023-05-05T09:53:03.246Z,24.40
2023-05-05T09:56:05.446Z,24.50
2023-05-05T09:59:11.767Z,24.50
2023-05-05T10:02:13.739Z,24.40
2023-05-05T10:05:17.480Z,24.40
2023-05-05T10:08:24.383Z,24.40
2023-05-05T10:11:26.356Z,24.40
2023-05-05T10:14:31.536Z,24.60
2023-05-05T10:17:36.856Z,24.90
2023-05-05T10:20:40.178Z,25.20
2023-05-05T10:23:56.082Z,25.20
2023-05-05T10:26:59.900Z,25.20
2023-05-05T10:30:05.133Z,25.50
2023-05-05T10:33:31.647Z,25.50
2023-05-05T10:36:34.527Z,25.80
2023-05-05T10:39:37.337Z,26.00
2023-05-05T10:42:40.033Z,26.10
2023-05-05T10:45:42.661Z,26.10
2023-05-05T10:49:06.562Z,26.00
2023-05-05T10:52:23.400Z,25.90
2023-05-05T10:55:39.056Z,25.90
2023-05-05T10:58:58.258Z,25.80
2023-05-05T11:02:01.700Z,25.70
2023-05-05T11:05:18.109Z,25.30
2023-05-05T11:08:27.007Z,25.40
2023-05-05T11:12:05.427Z,25.60
2023-05-05T11:15:25.923Z,25.70
2023-05-05T11:18:35.624Z,25.70
2023-05-05T11:22:00.982Z,25.90
2023-05-05T11:25:37.821Z,26.00
2023-05-05T11:29:03.813Z,26.00
2023-05-05T11:32:13.118Z,26.30
2023-05-05T11:35:15.420Z,26.20
2023-05-05T11:38:20.785Z,26.30
2023-05-05T11:41:34.280Z,26.40
2023-05-05T11:44:36.097Z,26.20
2023-05-05T11:47:37.838Z,26.20
2023-05-05T11:50:39.982Z,26.30
2023-05-05T11:53:46.396Z,26.20
2023-05-05T11:56:54.976Z,26.00
2023-05-05T12:00:06.154Z,25.90
2023-05-05T12:03:08.778Z,25.80
2023-05-05T12:06:10.592Z,26.00
2023-05-05T12:09:16.340Z,26.30
2023-05-05T12:12:18.515Z,26.70
2023-05-05T12:15:30.867Z,26.90
2023-05-05T12:18:32.511Z,27.10
2023-05-05T12:21:35.130Z,27.00
2023-05-05T12:24:36.843Z,26.90
2023-05-05T12:27:38.708Z,26.70
2023-05-05T12:30:40.530Z,26.80
2023-05-05T12:33:42.840Z,26.90
2023-05-05T12:36:45.158Z,26.80
2023-05-05T12:39:47.310Z,26.60
2023-05-05T12:42:49.126Z,26.70
2023-05-05T12:46:03.679Z,26.60
2023-05-05T12:49:06.858Z,26.40
2023-05-05T12:52:10.035Z,26.40
2023-05-05T12:55:12.730Z,26.30
2023-05-05T12:58:14.464Z,26.40
2023-05-05T13:01:16.082Z,26.30
2023-05-05T13:04:18.358Z,26.40
2023-05-05T13:07:23.120Z,26.40
2023-05-05T13:10:31.240Z,26.50
2023-05-05T13:13:32.999Z,26.60
2023-05-05T13:16:34.762Z,26.60
2023-05-05T13:19:41.842Z,26.60
2023-05-05T13:22:43.595Z,26.70
2023-05-05T13:25:47.736Z,26.70
2023-05-05T13:28:49.455Z,26.90
2023-05-05T13:31:51.098Z,26.80
2023-05-05T13:34:52.959Z,26.90
2023-05-05T13:37:54.550Z,26.60
2023-05-05T13:40:56.243Z,26.40
2023-05-05T13:43:57.837Z,26.60
2023-05-05T13:46:59.509Z,26.50
2023-05-05T13:50:02.016Z,26.40
2023-05-05T13:53:04.045Z,26.40
2023-05-05T13:56:06.295Z,26.20
2023-05-05T13:59:07.962Z,26.30
2023-05-05T14:02:09.616Z,26.50
2023-05-05T14:05:11.346Z,26.80
2023-05-05T14:08:13.599Z,27.00
2023-05-05T14:11:17.208Z,27.10
2023-05-05T14:14:19.624Z,27.00
2023-05-05T14:17:21.212Z,27.00
2023-05-05T14:20:23.055Z,26.90
2023-05-05T14:23:24.618Z,26.60
2023-05-05T14:26:26.248Z,26.20
2023-05-05T14:29:27.873Z,26.10
2023-05-05T14:32:29.424Z,26.00
2023-05-05T14:35:31.399Z,25.80
2023-05-05T14:38:33.075Z,25.90
2023-05-05T14:41:34.691Z,25.80
2023-05-05T14:44:36.632Z,25.70
2023-05-05T14:47:38.290Z,25.40
2023-05-05T14:50:42.143Z,25.00
2023-05-05T14:53:43.780Z,24.70
2023-05-05T14:56:45.393Z,24.50
2023-05-05T14:59:51.194Z,24.20
2023-05-05T15:02:52.867Z,24.10
2023-05-05T15:05:54.414Z,23.90
2023-05-05T15:08:56.044Z,23.60
2023-05-05T15:11:57.599Z,23.50
2023-05-05T15:14:59.194Z,23.40
2023-05-05T15:18:00.783Z,23.30
2023-05-05T15:21:02.388Z,23.10
2023-05-05T15:24:04.917Z,22.90
2023-05-05T15:27:06.623Z,22.80
2023-05-05T15:30:09.021Z,22.70
2023-05-05T15:33:10.720Z,22.60
2023-05-05T15:36:12.559Z,22.60
2023-05-05T15:39:14.273Z,22.30
2023-05-05T15:42:15.916Z,22.10
2023-05-05T15:45:17.718Z,21.90
2023-05-05T15:48:19.563Z,21.80
2023-05-05T15:51:21.297Z,21.70
2023-05-05T15:54:22.954Z,21.40
2023-05-05T15:57:24.662Z,21.30
2023-05-05T16:00:26.631Z,21.20
2023-05-05T16:03:28.604Z,21.20
2023-05-05T16:06:30.629Z,21.00
2023-05-05T16:09:32.267Z,20.90
2023-05-05T16:12:33.893Z,20.90
2023-05-05T16:15:35.806Z,20.80
2023-05-05T16:18:37.427Z,20.70
2023-05-05T16:21:38.998Z,20.60
2023-05-05T16:24:42.514Z,20.40
2023-05-05T16:27:46.197Z,20.30
2023-05-05T16:30:47.858Z,20.40
2023-05-05T16:33:49.480Z,20.30
2023-05-05T16:36:51.266Z,20.10
2023-05-05T16:39:52.934Z,19.80
2023-05-05T16:42:54.591Z,19.60
2023-05-05T16:45:56.363Z,19.50
2023-05-05T16:48:58.290Z,19.30
2023-05-05T16:51:59.966Z,19.20
2023-05-05T16:55:04.533Z,19.10
2023-05-05T16:58:06.150Z,19.10
2023-05-05T17:01:07.797Z,19.10
2023-05-05T17:04:09.760Z,19.10
2023-05-05T17:07:11.352Z,19.00
2023-05-05T17:10:12.944Z,18.90
2023-05-05T17:13:14.908Z,18.90
2023-05-05T17:16:16.600Z,19.00
2023-05-05T17:19:18.232Z,19.10
2023-05-05T17:22:19.860Z,19.10
2023-05-05T17:25:21.638Z,19.10
2023-05-05T17:28:23.283Z,19.10
2023-05-05T17:31:24.913Z,19.10
2023-05-05T17:34:26.493Z,19.10
2023-05-05T17:37:28.152Z,19.10
2023-05-05T17:40:29.829Z,19.10
2023-05-05T17:43:31.407Z,19.00
2023-05-05T17:46:33.069Z,19.10
2023-05-05T17:49:34.785Z,19.00
2023-05-05T17:52:36.506Z,19.00
2023-05-05T17:55:38.174Z,19.00
2023-05-05T17:58:39.765Z,18.90
2023-05-05T18:01:41.530Z,18.90
2023-05-05T18:04:43.449Z,18.90
2023-05-05T18:07:45.441Z,18.90
2023-05-05T18:10:47.021Z,18.90
2023-05-05T18:13:48.580Z,18.90
2023-05-05T18:16:53.047Z,18.90
2023-05-05T18:19:54.849Z,18.90
2023-05-05T18:22:56.529Z,18.90
2023-05-05T18:25:58.134Z,18.90
2023-05-05T18:28:59.722Z,18.80
2023-05-05T18:32:01.728Z,18.80
2023-05-05T18:35:03.541Z,18.70
2023-05-05T18:38:05.298Z,18.70
2023-05-05T18:41:07.104Z,18.60
2023-05-05T18:44:08.798Z,18.60
2023-05-05T18:47:10.581Z,18.50
2023-05-05T18:50:12.755Z,18.50
2023-05-05T18:53:16.496Z,18.40
2023-05-05T18:56:18.054Z,18.40
2023-05-05T18:59:20.820Z,18.30
2023-05-05T19:02:22.481Z,18.30
2023-05-05T19:05:24.207Z,18.30
2023-05-05T19:08:25.819Z,18.20
2023-05-05T19:11:27.443Z,18.10
2023-05-05T19:14:29.347Z,18.00
2023-05-05T19:17:32.182Z,18.00
2023-05-05T19:20:33.827Z,17.90
2023-05-05T19:23:36.141Z,17.80
2023-05-05T19:26:37.823Z,17.80
2023-05-05T19:29:40.304Z,17.80
2023-05-05T19:32:41.976Z,17.70
2023-05-05T19:35:44.152Z,17.70
2023-05-05T19:38:46.525Z,17.60
2023-05-05T19:41:48.298Z,17.50
2023-05-05T19:44:49.914Z,17.40
2023-05-05T19:47:51.579Z,17.40
2023-05-05T19:50:53.195Z,17.30
2023-05-05T19:53:54.774Z,17.30
2023-05-05T19:57:00.538Z,17.30
2023-05-05T20:00:02.379Z,17.20
2023-05-05T20:03:04.151Z,17.20
2023-05-05T20:06:06.055Z,17.10
2023-05-05T20:09:08.492Z,17.10
2023-05-05T20:12:10.776Z,17.00
2023-05-05T20:15:18.390Z,17.00
2023-05-05T20:18:20.144Z,16.90
2023-05-05T20:21:21.811Z,16.90
2023-05-05T20:24:23.368Z,16.80
2023-05-05T20:27:26.650Z,16.70
2023-05-05T20:30:29.601Z,16.70
2023-05-05T20:33:31.320Z,16.70
2023-05-05T20:36:32.959Z,16.60
2023-05-05T20:39:34.601Z,16.60
2023-05-05T20:42:36.973Z,16.60
2023-05-05T20:45:38.539Z,16.60
2023-05-05T20:48:42.734Z,16.60
2023-05-05T20:51:44.765Z,16.60
2023-05-05T20:54:46.424Z,16.60
2023-05-05T20:57:48.026Z,16.60
2023-05-05T21:00:49.796Z,16.60
2023-05-05T21:03:51.628Z,16.50
2023-05-05T21:06:53.250Z,16.50
2023-05-05T21:09:54.939Z,16.50
2023-05-05T21:12:56.670Z,16.50
2023-05-05T21:15:58.340Z,16.50
2023-05-05T21:19:00.394Z,16.50
2023-05-05T21:22:02.375Z,16.50
2023-05-05T21:25:17.606Z,16.40
2023-05-05T21:28:19.223Z,16.40
2023-05-05T21:31:22.452Z,16.30
2023-05-05T21:34:24.240Z,16.30
2023-05-05T21:37:25.937Z,16.30
2023-05-05T21:40:27.575Z,16.30
2023-05-05T21:43:29.227Z,16.30
2023-05-05T21:46:31.279Z,16.20
2023-05-05T21:49:33.020Z,16.10
2023-05-05T21:52:34.658Z,16.00
2023-05-05T21:55:36.382Z,15.90
2023-05-05T21:58:37.974Z,15.90
2023-05-05T22:01:39.562Z,15.80
2023-05-05T22:04:41.203Z,15.70
2023-05-05T22:07:42.769Z,15.60
2023-05-05T22:10:44.755Z,15.60
2023-05-05T22:13:46.732Z,15.50
2023-05-05T22:16:48.487Z,15.50
2023-05-05T22:19:50.955Z,15.50
2023-05-05T22:22:52.527Z,15.60
2023-05-05T22:25:54.372Z,15.60
2023-05-05T22:28:56.996Z,15.60
2023-05-05T22:31:58.621Z,15.50
2023-05-05T22:35:01.180Z,15.50
2023-05-05T22:38:03.089Z,15.40
2023-05-05T22:41:07.207Z,15.40
2023-05-05T22:44:08.881Z,15.30
2023-05-05T22:47:10.560Z,15.20
2023-05-05T22:50:12.381Z,15.10
2023-05-05T22:53:13.962Z,15.10
2023-05-05T22:56:15.630Z,15.00
2023-05-05T22:59:17.249Z,14.90
2023-05-05T23:02:18.833Z,14.90
2023-05-05T23:05:20.627Z,14.90
2023-05-05T23:08:23.954Z,14.80
2023-05-05T23:11:26.138Z,14.80
2023-05-05T23:14:27.689Z,14.70
2023-05-05T23:17:29.279Z,14.80
2023-05-05T23:20:30.957Z,14.70
2023-05-05T23:23:32.579Z,14.70
2023-05-05T23:26:34.563Z,14.80
2023-05-05T23:29:36.143Z,14.70
2023-05-05T23:32:37.842Z,14.70
2023-05-05T23:35:43.146Z,14.60
2023-05-05T23:38:45.626Z,14.60
2023-05-05T23:41:47.192Z,14.60
2023-05-05T23:44:48.768Z,14.60
2023-05-05T23:47:50.414Z,14.60
2023-05-05T23:50:52.564Z,14.60
2023-05-05T23:53:56.608Z,14.50
2023-05-05T23:57:00.193Z,14.50
